sensor_id;sensor_type;location;lat;lon;timestamp;P1;durP1;ratioP1;P2;durP2;ratioP2
30096;SDS011;16915;51.466;3.610;2023-05-10T06:47:08;3.45;;;2.58;;
30096;SDS011;16915;51.466;3.610;2023-05-10T06:49:34;4.57;;;2.42;;
30096;SDS011;16915;51.466;3.610;2023-05-10T06:51:59;5.05;;;2.30;;
30096;SDS011;16915;51.466;3.610;2023-05-10T06:54:25;4.03;;;2.00;;
30096;SDS011;16915;51.466;3.610;2023-05-10T06:56:50;3.45;;;2.05;;
30096;SDS011;16915;51.466;3.610;2023-05-10T06:59:16;2.85;;;1.95;;
30096;SDS011;16915;51.466;3.610;2023-05-10T07:01:41;3.08;;;1.65;;
30096;SDS011;16915;51.466;3.610;2023-05-10T07:04:07;4.45;;;2.10;;
30096;SDS011;16915;51.466;3.610;2023-05-10T07:06:33;4.88;;;2.42;;
30096;SDS011;16915;51.466;3.610;2023-05-10T07:08:59;2.55;;;1.70;;
30096;SDS011;16915;51.466;3.610;2023-05-10T07:11:25;3.72;;;1.90;;
30096;SDS011;16915;51.466;3.610;2023-05-10T07:13:51;2.20;;;1.52;;
30096;SDS011;16915;51.466;3.610;2023-05-10T07:16:17;3.17;;;1.60;;
30096;SDS011;16915;51.466;3.610;2023-05-10T07:18:42;3.63;;;1.58;;
30096;SDS011;16915;51.466;3.610;2023-05-10T07:21:08;3.85;;;1.73;;
30096;SDS011;16915;51.466;3.610;2023-05-10T07:23:33;1.48;;;1.33;;
30096;SDS011;16915;51.466;3.610;2023-05-10T07:25:59;2.45;;;1.33;;
30096;SDS011;16915;51.466;3.610;2023-05-10T07:28:25;3.38;;;1.45;;
30096;SDS011;16915;51.466;3.610;2023-05-10T07:30:50;2.72;;;1.40;;
30096;SDS011;16915;51.466;3.610;2023-05-10T07:33:16;3.53;;;1.63;;
30096;SDS011;16915;51.466;3.610;2023-05-10T07:35:42;4.07;;;1.60;;
30096;SDS011;16915;51.466;3.610;2023-05-10T07:38:08;1.92;;;1.30;;
30096;SDS011;16915;51.466;3.610;2023-05-10T07:40:33;3.58;;;1.60;;
30096;SDS011;16915;51.466;3.610;2023-05-10T07:42:59;3.95;;;1.70;;
30096;SDS011;16915;51.466;3.610;2023-05-10T07:45:26;3.58;;;1.60;;
30096;SDS011;16915;51.466;3.610;2023-05-10T07:47:52;2.40;;;1.60;;
30096;SDS011;16915;51.466;3.610;2023-05-10T07:50:18;2.80;;;1.55;;
30096;SDS011;16915;51.466;3.610;2023-05-10T07:52:43;6.38;;;1.83;;
30096;SDS011;16915;51.466;3.610;2023-05-10T07:55:09;2.72;;;1.67;;
30096;SDS011;16915;51.466;3.610;2023-05-10T07:57:35;5.57;;;1.60;;
30096;SDS011;16915;51.466;3.610;2023-05-10T08:00:00;4.03;;;1.45;;
30096;SDS011;16915;51.466;3.610;2023-05-10T08:02:26;3.25;;;1.98;;
30096;SDS011;16915;51.466;3.610;2023-05-10T08:04:52;2.10;;;1.83;;
30096;SDS011;16915;51.466;3.610;2023-05-10T08:07:17;3.70;;;2.10;;
30096;SDS011;16915;51.466;3.610;2023-05-10T08:09:43;2.88;;;1.70;;
30096;SDS011;16915;51.466;3.610;2023-05-10T08:12:08;6.05;;;1.98;;
30096;SDS011;16915;51.466;3.610;2023-05-10T08:14:34;4.82;;;1.50;;
30096;SDS011;16915;51.466;3.610;2023-05-10T08:17:01;4.25;;;1.85;;
30096;SDS011;16915;51.466;3.610;2023-05-10T08:19:28;2.13;;;1.70;;
30096;SDS011;16915;51.466;3.610;2023-05-10T08:21:53;3.30;;;1.63;;
30096;SDS011;16915;51.466;3.610;2023-05-10T08:24:20;3.47;;;1.73;;
30096;SDS011;16915;51.466;3.610;2023-05-10T08:26:46;3.60;;;2.08;;
30096;SDS011;16915;51.466;3.610;2023-05-10T08:29:12;3.25;;;1.60;;
30096;SDS011;16915;51.466;3.610;2023-05-10T08:31:38;4.55;;;1.98;;
30096;SDS011;16915;51.466;3.610;2023-05-10T08:34:04;3.30;;;1.85;;
30096;SDS011;16915;51.466;3.610;2023-05-10T08:36:29;1.40;;;1.30;;
30096;SDS011;16915;51.466;3.610;2023-05-10T08:38:56;3.80;;;1.50;;
30096;SDS011;16915;51.466;3.610;2023-05-10T08:41:23;1.73;;;1.13;;
30096;SDS011;16915;51.466;3.610;2023-05-10T08:43:50;1.30;;;1.20;;
30096;SDS011;16915;51.466;3.610;2023-05-10T08:46:18;4.68;;;1.50;;
30096;SDS011;16915;51.466;3.610;2023-05-10T08:48:45;3.67;;;1.92;;
30096;SDS011;16915;51.466;3.610;2023-05-10T08:51:17;2.03;;;1.10;;
30096;SDS011;16915;51.466;3.610;2023-05-10T08:53:44;2.97;;;1.50;;
30096;SDS011;16915;51.466;3.610;2023-05-10T08:56:10;3.85;;;1.58;;
30096;SDS011;16915;51.466;3.610;2023-05-10T08:58:36;1.58;;;1.48;;
30096;SDS011;16915;51.466;3.610;2023-05-10T09:01:03;1.70;;;1.60;;
30096;SDS011;16915;51.466;3.610;2023-05-10T09:03:30;4.70;;;1.50;;
30096;SDS011;16915;51.466;3.610;2023-05-10T09:05:56;3.60;;;1.60;;
30096;SDS011;16915;51.466;3.610;2023-05-10T09:08:22;23.38;;;3.58;;
30096;SDS011;16915;51.466;3.610;2023-05-10T09:10:51;1.90;;;1.70;;
30096;SDS011;16915;51.466;3.610;2023-05-10T09:13:17;5.55;;;2.38;;
30096;SDS011;16915;51.466;3.610;2023-05-10T09:15:44;4.65;;;2.17;;
30096;SDS011;16915;51.466;3.610;2023-05-10T09:18:10;3.63;;;2.42;;
30096;SDS011;16915;51.466;3.610;2023-05-10T09:20:36;3.58;;;2.22;;
30096;SDS011;16915;51.466;3.610;2023-05-10T09:23:02;3.75;;;2.03;;
30096;SDS011;16915;51.466;3.610;2023-05-10T09:25:28;3.92;;;2.45;;
30096;SDS011;16915;51.466;3.610;2023-05-10T09:27:53;3.28;;;2.58;;
30096;SDS011;16915;51.466;3.610;2023-05-10T09:30:24;5.95;;;2.63;;
30096;SDS011;16915;51.466;3.610;2023-05-10T09:32:51;3.83;;;2.95;;
30096;SDS011;16915;51.466;3.610;2023-05-10T09:35:18;4.25;;;2.75;;
30096;SDS011;16915;51.466;3.610;2023-05-10T09:37:46;2.95;;;2.67;;
30096;SDS011;16915;51.466;3.610;2023-05-10T09:40:13;2.70;;;2.47;;
30096;SDS011;16915;51.466;3.610;2023-05-10T09:43:00;6.80;;;2.80;;
30096;SDS011;16915;51.466;3.610;2023-05-10T09:45:26;3.05;;;2.72;;
30096;SDS011;16915;51.466;3.610;2023-05-10T09:47:54;4.10;;;3.20;;
30096;SDS011;16915;51.466;3.610;2023-05-10T09:50:20;6.68;;;3.28;;
30096;SDS011;16915;51.466;3.610;2023-05-10T09:52:53;6.57;;;2.75;;
30096;SDS011;16915;51.466;3.610;2023-05-10T09:55:37;4.80;;;3.55;;
30096;SDS011;16915;51.466;3.610;2023-05-10T09:58:03;5.10;;;3.22;;
30096;SDS011;16915;51.466;3.610;2023-05-10T10:00:38;4.82;;;2.92;;
30096;SDS011;16915;51.466;3.610;2023-05-10T10:03:06;4.43;;;3.22;;
30096;SDS011;16915;51.466;3.610;2023-05-10T10:08:05;5.05;;;3.17;;
30096;SDS011;16915;51.466;3.610;2023-05-10T10:10:31;5.22;;;3.22;;
30096;SDS011;16915;51.466;3.610;2023-05-10T10:12:58;6.47;;;3.10;;
30096;SDS011;16915;51.466;3.610;2023-05-10T10:15:24;4.78;;;3.05;;
30096;SDS011;16915;51.466;3.610;2023-05-10T10:17:50;3.78;;;2.90;;
30096;SDS011;16915;51.466;3.610;2023-05-10T10:20:18;3.33;;;2.90;;
30096;SDS011;16915;51.466;3.610;2023-05-10T10:22:44;2.97;;;2.65;;
30096;SDS011;16915;51.466;3.610;2023-05-10T10:25:11;4.72;;;3.13;;
30096;SDS011;16915;51.466;3.610;2023-05-10T10:30:15;41.33;;;5.50;;
30096;SDS011;16915;51.466;3.610;2023-05-10T10:35:46;6.63;;;4.28;;
30096;SDS011;16915;51.466;3.610;2023-05-10T10:38:12;7.72;;;3.72;;
30096;SDS011;16915;51.466;3.610;2023-05-10T10:40:38;6.43;;;3.60;;
30096;SDS011;16915;51.466;3.610;2023-05-10T10:43:20;3.90;;;3.00;;
30096;SDS011;16915;51.466;3.610;2023-05-10T10:48:40;4.80;;;4.03;;
30096;SDS011;16915;51.466;3.610;2023-05-10T10:51:06;6.03;;;3.80;;
30096;SDS011;16915;51.466;3.610;2023-05-10T10:53:32;6.15;;;3.60;;
30096;SDS011;16915;51.466;3.610;2023-05-10T10:56:17;4.38;;;4.00;;
30096;SDS011;16915;51.466;3.610;2023-05-10T10:58:49;5.38;;;3.70;;
30096;SDS011;16915;51.466;3.610;2023-05-10T11:01:18;5.90;;;3.67;;
30096;SDS011;16915;51.466;3.610;2023-05-10T11:06:28;7.65;;;3.92;;
30096;SDS011;16915;51.466;3.610;2023-05-10T11:08:59;6.40;;;3.47;;
30096;SDS011;16915;51.466;3.610;2023-05-10T11:11:35;7.13;;;3.50;;
30096;SDS011;16915;51.466;3.610;2023-05-10T11:14:13;3.67;;;3.38;;
30096;SDS011;16915;51.466;3.610;2023-05-10T11:16:42;4.10;;;3.53;;
30096;SDS011;16915;51.466;3.610;2023-05-10T11:19:15;7.50;;;3.80;;
30096;SDS011;16915;51.466;3.610;2023-05-10T11:22:23;5.55;;;3.72;;
30096;SDS011;16915;51.466;3.610;2023-05-10T11:24:30;6.60;;;4.63;;
30096;SDS011;16915;51.466;3.610;2023-05-10T11:26:56;6.22;;;4.13;;
30096;SDS011;16915;51.466;3.610;2023-05-10T11:29:21;6.45;;;4.13;;
30096;SDS011;16915;51.466;3.610;2023-05-10T11:31:48;5.63;;;3.63;;
30096;SDS011;16915;51.466;3.610;2023-05-10T11:36:56;7.20;;;3.38;;
30096;SDS011;16915;51.466;3.610;2023-05-10T11:39:29;5.78;;;3.53;;
30096;SDS011;16915;51.466;3.610;2023-05-10T11:41:56;8.93;;;4.43;;
30096;SDS011;16915;51.466;3.610;2023-05-10T11:44:22;6.40;;;3.80;;
30096;SDS011;16915;51.466;3.610;2023-05-10T11:46:48;6.63;;;3.75;;
30096;SDS011;16915;51.466;3.610;2023-05-10T11:49:14;5.15;;;4.03;;
30096;SDS011;16915;51.466;3.610;2023-05-10T11:51:40;7.22;;;3.97;;
30096;SDS011;16915;51.466;3.610;2023-05-10T11:54:11;7.35;;;3.75;;
30096;SDS011;16915;51.466;3.610;2023-05-10T11:56:37;11.02;;;3.58;;
30096;SDS011;16915;51.466;3.610;2023-05-10T11:59:04;4.85;;;3.60;;
30096;SDS011;16915;51.466;3.610;2023-05-10T12:01:30;5.63;;;3.58;;
30096;SDS011;16915;51.466;3.610;2023-05-10T12:03:56;5.70;;;3.78;;
30096;SDS011;16915;51.466;3.610;2023-05-10T12:06:28;7.25;;;3.22;;
30096;SDS011;16915;51.466;3.610;2023-05-10T12:08:56;3.50;;;2.95;;
30096;SDS011;16915;51.466;3.610;2023-05-10T12:11:26;8.95;;;3.97;;
30096;SDS011;16915;51.466;3.610;2023-05-10T12:13:53;6.40;;;3.28;;
30096;SDS011;16915;51.466;3.610;2023-05-10T12:16:20;6.25;;;3.45;;
30096;SDS011;16915;51.466;3.610;2023-05-10T12:18:50;7.32;;;3.25;;
30096;SDS011;16915;51.466;3.610;2023-05-10T12:21:17;3.70;;;3.20;;
30096;SDS011;16915;51.466;3.610;2023-05-10T12:23:45;4.85;;;3.35;;
30096;SDS011;16915;51.466;3.610;2023-05-10T12:26:11;5.05;;;3.15;;
30096;SDS011;16915;51.466;3.610;2023-05-10T12:28:37;6.22;;;3.20;;
30096;SDS011;16915;51.466;3.610;2023-05-10T12:31:04;5.35;;;2.60;;
30096;SDS011;16915;51.466;3.610;2023-05-10T12:33:37;3.55;;;2.83;;
30096;SDS011;16915;51.466;3.610;2023-05-10T12:36:08;4.80;;;2.50;;
30096;SDS011;16915;51.466;3.610;2023-05-10T12:38:38;6.73;;;3.03;;
30096;SDS011;16915;51.466;3.610;2023-05-10T12:41:11;10.43;;;3.00;;
30096;SDS011;16915;51.466;3.610;2023-05-10T12:43:38;10.63;;;3.13;;
30096;SDS011;16915;51.466;3.610;2023-05-10T12:46:05;8.43;;;3.53;;
30096;SDS011;16915;51.466;3.610;2023-05-10T12:48:36;9.77;;;3.70;;
30096;SDS011;16915;51.466;3.610;2023-05-10T12:51:02;6.05;;;3.53;;
30096;SDS011;16915;51.466;3.610;2023-05-10T12:53:29;8.05;;;3.80;;
30096;SDS011;16915;51.466;3.610;2023-05-10T12:55:55;3.83;;;3.50;;
30096;SDS011;16915;51.466;3.610;2023-05-10T12:58:21;4.95;;;3.38;;
30096;SDS011;16915;51.466;3.610;2023-05-10T13:00:46;5.15;;;3.35;;
30096;SDS011;16915;51.466;3.610;2023-05-10T13:03:12;5.40;;;3.45;;
30096;SDS011;16915;51.466;3.610;2023-05-10T13:05:37;6.68;;;3.42;;
30096;SDS011;16915;51.466;3.610;2023-05-10T13:08:03;4.93;;;3.38;;
30096;SDS011;16915;51.466;3.610;2023-05-10T13:10:29;4.53;;;3.35;;
30096;SDS011;16915;51.466;3.610;2023-05-10T13:12:55;5.75;;;3.78;;
30096;SDS011;16915;51.466;3.610;2023-05-10T13:15:22;5.47;;;3.60;;
30096;SDS011;16915;51.466;3.610;2023-05-10T13:17:47;7.20;;;3.70;;
30096;SDS011;16915;51.466;3.610;2023-05-10T13:20:15;5.78;;;3.75;;
30096;SDS011;16915;51.466;3.610;2023-05-10T13:22:42;4.35;;;3.85;;
30096;SDS011;16915;51.466;3.610;2023-05-10T13:25:09;8.50;;;4.00;;
30096;SDS011;16915;51.466;3.610;2023-05-10T13:27:35;8.90;;;4.53;;
30096;SDS011;16915;51.466;3.610;2023-05-10T13:30:02;5.57;;;4.35;;
30096;SDS011;16915;51.466;3.610;2023-05-10T13:32:28;7.88;;;4.85;;
30096;SDS011;16915;51.466;3.610;2023-05-10T13:34:54;5.75;;;3.88;;
30096;SDS011;16915;51.466;3.610;2023-05-10T13:37:20;10.57;;;4.90;;
30096;SDS011;16915;51.466;3.610;2023-05-10T13:39:46;6.10;;;4.55;;
30096;SDS011;16915;51.466;3.610;2023-05-10T13:42:12;12.02;;;5.25;;
30096;SDS011;16915;51.466;3.610;2023-05-10T13:44:37;8.20;;;4.50;;
30096;SDS011;16915;51.466;3.610;2023-05-10T13:47:03;6.28;;;4.43;;
30096;SDS011;16915;51.466;3.610;2023-05-10T13:49:29;8.73;;;5.03;;
30096;SDS011;16915;51.466;3.610;2023-05-10T13:51:55;7.75;;;5.30;;
30096;SDS011;16915;51.466;3.610;2023-05-10T13:54:20;6.07;;;4.70;;
30096;SDS011;16915;51.466;3.610;2023-05-10T13:56:47;7.45;;;4.70;;
30096;SDS011;16915;51.466;3.610;2023-05-10T13:59:13;8.95;;;4.88;;
30096;SDS011;16915;51.466;3.610;2023-05-10T14:01:39;6.80;;;4.40;;
30096;SDS011;16915;51.466;3.610;2023-05-10T14:04:05;8.40;;;4.05;;
30096;SDS011;16915;51.466;3.610;2023-05-10T14:06:32;8.38;;;4.32;;
30096;SDS011;16915;51.466;3.610;2023-05-10T14:08:58;8.10;;;4.75;;
30096;SDS011;16915;51.466;3.610;2023-05-10T14:11:24;8.77;;;4.53;;
30096;SDS011;16915;51.466;3.610;2023-05-10T14:13:49;7.90;;;5.38;;
30096;SDS011;16915;51.466;3.610;2023-05-10T14:16:15;7.93;;;5.47;;
30096;SDS011;16915;51.466;3.610;2023-05-10T14:18:40;7.13;;;5.65;;
30096;SDS011;16915;51.466;3.610;2023-05-10T14:21:06;9.27;;;6.15;;
30096;SDS011;16915;51.466;3.610;2023-05-10T14:23:32;9.43;;;5.95;;
30096;SDS011;16915;51.466;3.610;2023-05-10T14:25:57;9.70;;;6.20;;
30096;SDS011;16915;51.466;3.610;2023-05-10T14:28:23;7.72;;;5.43;;
30096;SDS011;16915;51.466;3.610;2023-05-10T14:30:50;10.23;;;6.35;;
30096;SDS011;16915;51.466;3.610;2023-05-10T14:33:16;11.55;;;7.30;;
30096;SDS011;16915;51.466;3.610;2023-05-10T14:35:42;14.05;;;6.63;;
30096;SDS011;16915;51.466;3.610;2023-05-10T14:38:07;8.93;;;6.55;;
30096;SDS011;16915;51.466;3.610;2023-05-10T14:40:33;9.75;;;6.13;;
30096;SDS011;16915;51.466;3.610;2023-05-10T14:42:59;11.48;;;6.38;;
30096;SDS011;16915;51.466;3.610;2023-05-10T14:45:25;10.73;;;6.05;;
30096;SDS011;16915;51.466;3.610;2023-05-10T14:47:51;12.77;;;6.80;;
30096;SDS011;16915;51.466;3.610;2023-05-10T14:50:17;10.77;;;6.43;;
30096;SDS011;16915;51.466;3.610;2023-05-10T14:52:43;14.65;;;6.40;;
30096;SDS011;16915;51.466;3.610;2023-05-10T14:55:09;10.10;;;6.43;;
30096;SDS011;16915;51.466;3.610;2023-05-10T14:57:34;10.75;;;6.78;;
30096;SDS011;16915;51.466;3.610;2023-05-10T15:00:00;14.52;;;7.28;;
30096;SDS011;16915;51.466;3.610;2023-05-10T15:02:26;11.23;;;6.65;;
30096;SDS011;16915;51.466;3.610;2023-05-10T15:04:52;12.63;;;7.03;;
30096;SDS011;16915;51.466;3.610;2023-05-10T15:07:17;12.27;;;6.18;;
30096;SDS011;16915;51.466;3.610;2023-05-10T15:09:44;11.00;;;7.03;;
30096;SDS011;16915;51.466;3.610;2023-05-10T15:12:10;13.18;;;6.80;;
30096;SDS011;16915;51.466;3.610;2023-05-10T15:14:35;12.70;;;7.25;;
30096;SDS011;16915;51.466;3.610;2023-05-10T15:17:01;14.57;;;7.43;;
30096;SDS011;16915;51.466;3.610;2023-05-10T15:19:27;16.17;;;7.18;;
30096;SDS011;16915;51.466;3.610;2023-05-10T15:21:58;22.50;;;7.43;;
30096;SDS011;16915;51.466;3.610;2023-05-10T15:24:23;15.38;;;7.35;;
30096;SDS011;16915;51.466;3.610;2023-05-10T15:26:49;13.25;;;6.93;;
30096;SDS011;16915;51.466;3.610;2023-05-10T15:29:15;15.48;;;7.57;;
30096;SDS011;16915;51.466;3.610;2023-05-10T15:31:45;14.55;;;6.75;;
30096;SDS011;16915;51.466;3.610;2023-05-10T15:34:11;16.48;;;6.50;;
30096;SDS011;16915;51.466;3.610;2023-05-10T15:36:37;13.02;;;5.43;;
30096;SDS011;16915;51.466;3.610;2023-05-10T15:39:03;13.25;;;5.47;;
30096;SDS011;16915;51.466;3.610;2023-05-10T15:41:28;11.38;;;4.97;;
30096;SDS011;16915;51.466;3.610;2023-05-10T15:43:55;17.35;;;5.05;;
30096;SDS011;16915;51.466;3.610;2023-05-10T15:46:20;8.48;;;4.78;;
30096;SDS011;16915;51.466;3.610;2023-05-10T15:48:46;12.82;;;4.65;;
30096;SDS011;16915;51.466;3.610;2023-05-10T15:51:11;16.08;;;5.65;;
30096;SDS011;16915;51.466;3.610;2023-05-10T15:53:37;12.00;;;4.82;;
30096;SDS011;16915;51.466;3.610;2023-05-10T15:56:03;14.43;;;4.82;;
30096;SDS011;16915;51.466;3.610;2023-05-10T15:58:29;12.25;;;4.75;;
30096;SDS011;16915;51.466;3.610;2023-05-10T16:00:55;10.27;;;4.90;;
30096;SDS011;16915;51.466;3.610;2023-05-10T16:03:21;15.90;;;4.82;;
30096;SDS011;16915;51.466;3.610;2023-05-10T16:05:47;11.85;;;5.00;;
30096;SDS011;16915;51.466;3.610;2023-05-10T16:08:12;11.93;;;5.00;;
30096;SDS011;16915;51.466;3.610;2023-05-10T16:10:38;9.05;;;4.95;;
30096;SDS011;16915;51.466;3.610;2023-05-10T16:13:04;17.00;;;4.85;;
30096;SDS011;16915;51.466;3.610;2023-05-10T16:15:30;16.80;;;4.85;;
30096;SDS011;16915;51.466;3.610;2023-05-10T16:17:55;10.73;;;4.90;;
30096;SDS011;16915;51.466;3.610;2023-05-10T16:20:21;10.45;;;4.25;;
30096;SDS011;16915;51.466;3.610;2023-05-10T16:22:47;14.85;;;4.75;;
30096;SDS011;16915;51.466;3.610;2023-05-10T16:25:13;15.98;;;4.45;;
30096;SDS011;16915;51.466;3.610;2023-05-10T16:27:39;13.38;;;4.72;;
30096;SDS011;16915;51.466;3.610;2023-05-10T16:30:05;13.13;;;4.50;;
30096;SDS011;16915;51.466;3.610;2023-05-10T16:32:30;10.50;;;4.78;;
30096;SDS011;16915;51.466;3.610;2023-05-10T16:34:57;12.32;;;4.32;;
30096;SDS011;16915;51.466;3.610;2023-05-10T16:37:23;16.70;;;4.60;;
30096;SDS011;16915;51.466;3.610;2023-05-10T16:39:48;12.30;;;4.47;;
30096;SDS011;16915;51.466;3.610;2023-05-10T16:42:14;12.57;;;4.47;;
30096;SDS011;16915;51.466;3.610;2023-05-10T16:44:40;8.50;;;4.20;;
30096;SDS011;16915;51.466;3.610;2023-05-10T16:47:06;10.52;;;5.03;;
30096;SDS011;16915;51.466;3.610;2023-05-10T16:49:31;10.85;;;4.00;;
30096;SDS011;16915;51.466;3.610;2023-05-10T16:51:57;8.38;;;4.68;;
30096;SDS011;16915;51.466;3.610;2023-05-10T16:54:23;11.90;;;4.95;;
30096;SDS011;16915;51.466;3.610;2023-05-10T16:56:49;19.08;;;5.13;;
30096;SDS011;16915;51.466;3.610;2023-05-10T16:59:15;21.85;;;4.97;;
30096;SDS011;16915;51.466;3.610;2023-05-10T17:01:41;8.45;;;4.20;;
30096;SDS011;16915;51.466;3.610;2023-05-10T17:04:07;13.05;;;3.33;;
30096;SDS011;16915;51.466;3.610;2023-05-10T17:06:34;9.43;;;3.50;;
30096;SDS011;16915;51.466;3.610;2023-05-10T17:08:59;8.90;;;3.38;;
30096;SDS011;16915;51.466;3.610;2023-05-10T17:11:25;12.10;;;3.55;;
30096;SDS011;16915;51.466;3.610;2023-05-10T17:13:51;12.30;;;3.63;;
30096;SDS011;16915;51.466;3.610;2023-05-10T17:16:17;8.90;;;3.22;;
30096;SDS011;16915;51.466;3.610;2023-05-10T17:18:42;8.32;;;3.15;;
30096;SDS011;16915;51.466;3.610;2023-05-10T17:21:09;8.13;;;3.30;;
30096;SDS011;16915;51.466;3.610;2023-05-10T17:23:35;12.20;;;3.63;;
30096;SDS011;16915;51.466;3.610;2023-05-10T17:26:02;10.50;;;3.58;;
30096;SDS011;16915;51.466;3.610;2023-05-10T17:28:29;9.73;;;3.65;;
30096;SDS011;16915;51.466;3.610;2023-05-10T17:30:55;12.60;;;3.30;;
30096;SDS011;16915;51.466;3.610;2023-05-10T17:33:22;8.35;;;2.80;;
30096;SDS011;16915;51.466;3.610;2023-05-10T17:35:47;10.70;;;3.22;;
30096;SDS011;16915;51.466;3.610;2023-05-10T17:38:13;9.50;;;3.45;;
30096;SDS011;16915;51.466;3.610;2023-05-10T17:40:39;8.77;;;3.10;;
30096;SDS011;16915;51.466;3.610;2023-05-10T17:43:05;10.05;;;3.28;;
30096;SDS011;16915;51.466;3.610;2023-05-10T17:45:30;11.48;;;3.03;;
30096;SDS011;16915;51.466;3.610;2023-05-10T17:47:56;9.60;;;3.05;;
30096;SDS011;16915;51.466;3.610;2023-05-10T17:50:21;10.07;;;2.85;;
30096;SDS011;16915;51.466;3.610;2023-05-10T17:52:47;12.23;;;2.97;;
30096;SDS011;16915;51.466;3.610;2023-05-10T17:55:12;11.55;;;3.28;;
30096;SDS011;16915;51.466;3.610;2023-05-10T17:57:38;13.13;;;3.25;;
30096;SDS011;16915;51.466;3.610;2023-05-10T18:00:04;15.27;;;3.90;;
30096;SDS011;16915;51.466;3.610;2023-05-10T18:02:36;11.90;;;3.72;;
30096;SDS011;16915;51.466;3.610;2023-05-10T18:05:02;8.10;;;3.42;;
30096;SDS011;16915;51.466;3.610;2023-05-10T18:07:28;8.32;;;3.28;;
30096;SDS011;16915;51.466;3.610;2023-05-10T18:09:57;12.48;;;3.47;;
30096;SDS011;16915;51.466;3.610;2023-05-10T18:12:22;14.23;;;4.05;;
30096;SDS011;16915;51.466;3.610;2023-05-10T18:14:48;9.07;;;2.95;;
30096;SDS011;16915;51.466;3.610;2023-05-10T18:17:14;8.32;;;3.38;;
30096;SDS011;16915;51.466;3.610;2023-05-10T18:19:40;12.50;;;3.50;;
30096;SDS011;16915;51.466;3.610;2023-05-10T18:22:05;13.82;;;3.25;;
30096;SDS011;16915;51.466;3.610;2023-05-10T18:24:31;10.43;;;3.60;;
30096;SDS011;16915;51.466;3.610;2023-05-10T18:26:57;11.23;;;3.53;;
30096;SDS011;16915;51.466;3.610;2023-05-10T18:29:24;7.43;;;3.53;;
30096;SDS011;16915;51.466;3.610;2023-05-10T18:31:50;13.10;;;3.90;;
30096;SDS011;16915;51.466;3.610;2023-05-10T18:34:15;14.13;;;3.55;;
30096;SDS011;16915;51.466;3.610;2023-05-10T18:36:41;13.25;;;3.10;;
30096;SDS011;16915;51.466;3.610;2023-05-10T18:39:08;9.52;;;3.83;;
30096;SDS011;16915;51.466;3.610;2023-05-10T18:41:34;7.90;;;3.40;;
30096;SDS011;16915;51.466;3.610;2023-05-10T18:44:00;13.48;;;3.78;;
30096;SDS011;16915;51.466;3.610;2023-05-10T18:46:27;11.43;;;4.32;;
30096;SDS011;16915;51.466;3.610;2023-05-10T18:48:52;9.65;;;4.03;;
30096;SDS011;16915;51.466;3.610;2023-05-10T18:51:18;11.45;;;3.38;;
30096;SDS011;16915;51.466;3.610;2023-05-10T18:53:46;10.75;;;3.63;;
30096;SDS011;16915;51.466;3.610;2023-05-10T18:56:11;10.27;;;4.13;;
30096;SDS011;16915;51.466;3.610;2023-05-10T18:58:37;11.15;;;4.50;;
30096;SDS011;16915;51.466;3.610;2023-05-10T19:01:03;10.82;;;4.10;;
30096;SDS011;16915;51.466;3.610;2023-05-10T19:03:28;13.43;;;4.63;;
30096;SDS011;16915;51.466;3.610;2023-05-10T19:05:54;14.15;;;4.32;;
30096;SDS011;16915;51.466;3.610;2023-05-10T19:08:20;13.15;;;4.32;;
30096;SDS011;16915;51.466;3.610;2023-05-10T19:10:46;14.68;;;4.72;;
30096;SDS011;16915;51.466;3.610;2023-05-10T19:13:11;12.00;;;3.78;;
30096;SDS011;16915;51.466;3.610;2023-05-10T19:15:38;13.88;;;4.45;;
30096;SDS011;16915;51.466;3.610;2023-05-10T19:18:05;9.27;;;4.32;;
30096;SDS011;16915;51.466;3.610;2023-05-10T19:20:31;14.68;;;4.82;;
30096;SDS011;16915;51.466;3.610;2023-05-10T19:22:57;12.05;;;4.65;;
30096;SDS011;16915;51.466;3.610;2023-05-10T19:25:22;16.90;;;4.57;;
30096;SDS011;16915;51.466;3.610;2023-05-10T19:27:53;14.15;;;4.85;;
30096;SDS011;16915;51.466;3.610;2023-05-10T19:30:22;12.80;;;4.50;;
30096;SDS011;16915;51.466;3.610;2023-05-10T19:32:48;15.40;;;4.75;;
30096;SDS011;16915;51.466;3.610;2023-05-10T19:35:14;9.07;;;4.22;;
30096;SDS011;16915;51.466;3.610;2023-05-10T19:37:40;10.27;;;4.55;;
30096;SDS011;16915;51.466;3.610;2023-05-10T19:40:09;7.55;;;4.30;;
30096;SDS011;16915;51.466;3.610;2023-05-10T19:42:39;14.70;;;5.70;;
30096;SDS011;16915;51.466;3.610;2023-05-10T19:45:05;15.68;;;4.88;;
30096;SDS011;16915;51.466;3.610;2023-05-10T19:47:32;11.50;;;4.60;;
30096;SDS011;16915;51.466;3.610;2023-05-10T19:49:59;18.70;;;5.03;;
30096;SDS011;16915;51.466;3.610;2023-05-10T19:52:25;14.05;;;4.70;;
30096;SDS011;16915;51.466;3.610;2023-05-10T19:54:51;16.00;;;5.28;;
30096;SDS011;16915;51.466;3.610;2023-05-10T19:57:16;16.85;;;5.40;;
30096;SDS011;16915;51.466;3.610;2023-05-10T19:59:42;14.32;;;5.68;;
30096;SDS011;16915;51.466;3.610;2023-05-10T20:02:08;12.60;;;5.00;;
30096;SDS011;16915;51.466;3.610;2023-05-10T20:04:33;20.60;;;6.25;;
30096;SDS011;16915;51.466;3.610;2023-05-10T20:06:59;18.33;;;6.00;;
30096;SDS011;16915;51.466;3.610;2023-05-10T20:09:24;15.65;;;5.82;;
30096;SDS011;16915;51.466;3.610;2023-05-10T20:11:50;19.48;;;5.88;;
30096;SDS011;16915;51.466;3.610;2023-05-10T20:14:16;16.45;;;5.53;;
30096;SDS011;16915;51.466;3.610;2023-05-10T20:16:42;17.95;;;6.47;;
30096;SDS011;16915;51.466;3.610;2023-05-10T20:19:08;13.63;;;5.18;;
30096;SDS011;16915;51.466;3.610;2023-05-10T20:21:34;17.80;;;5.88;;
30096;SDS011;16915;51.466;3.610;2023-05-10T20:24:00;14.27;;;5.78;;
30096;SDS011;16915;51.466;3.610;2023-05-10T20:26:25;15.20;;;5.80;;
30096;SDS011;16915;51.466;3.610;2023-05-10T20:28:51;14.40;;;5.80;;
30096;SDS011;16915;51.466;3.610;2023-05-10T20:31:17;19.52;;;6.07;;
30096;SDS011;16915;51.466;3.610;2023-05-10T20:33:42;18.98;;;6.10;;
30096;SDS011;16915;51.466;3.610;2023-05-10T20:36:08;17.95;;;5.82;;
30096;SDS011;16915;51.466;3.610;2023-05-10T20:38:34;12.77;;;5.40;;
30096;SDS011;16915;51.466;3.610;2023-05-10T20:41:00;14.02;;;5.47;;
30096;SDS011;16915;51.466;3.610;2023-05-10T20:43:26;16.45;;;5.78;;
30096;SDS011;16915;51.466;3.610;2023-05-10T20:45:53;13.73;;;6.15;;
30096;SDS011;16915;51.466;3.610;2023-05-10T20:48:18;19.85;;;5.93;;
30096;SDS011;16915;51.466;3.610;2023-05-10T20:50:44;16.52;;;6.05;;
30096;SDS011;16915;51.466;3.610;2023-05-10T20:53:10;16.70;;;5.00;;
30096;SDS011;16915;51.466;3.610;2023-05-10T20:55:36;10.32;;;5.18;;
30096;SDS011;16915;51.466;3.610;2023-05-10T20:58:01;19.73;;;5.07;;
30096;SDS011;16915;51.466;3.610;2023-05-10T21:00:27;16.88;;;4.78;;
30096;SDS011;16915;51.466;3.610;2023-05-10T21:02:52;18.23;;;4.88;;
30096;SDS011;16915;51.466;3.610;2023-05-10T21:05:18;15.60;;;4.70;;
30096;SDS011;16915;51.466;3.610;2023-05-10T21:07:43;13.45;;;4.28;;
30096;SDS011;16915;51.466;3.610;2023-05-10T21:10:09;12.27;;;4.65;;
30096;SDS011;16915;51.466;3.610;2023-05-10T21:12:35;18.15;;;4.53;;
30096;SDS011;16915;51.466;3.610;2023-05-10T21:15:01;23.60;;;5.55;;
30096;SDS011;16915;51.466;3.610;2023-05-10T21:17:27;21.05;;;4.88;;
30096;SDS011;16915;51.466;3.610;2023-05-10T21:19:53;19.75;;;5.30;;
30096;SDS011;16915;51.466;3.610;2023-05-10T21:22:19;19.08;;;4.47;;
30096;SDS011;16915;51.466;3.610;2023-05-10T21:24:44;20.42;;;4.60;;
30096;SDS011;16915;51.466;3.610;2023-05-10T21:27:10;18.58;;;4.20;;
30096;SDS011;16915;51.466;3.610;2023-05-10T21:29:36;19.30;;;3.85;;
30096;SDS011;16915;51.466;3.610;2023-05-10T21:32:01;20.85;;;4.43;;
30096;SDS011;16915;51.466;3.610;2023-05-10T21:34:27;13.98;;;3.47;;
30096;SDS011;16915;51.466;3.610;2023-05-10T21:36:53;16.40;;;3.92;;
30096;SDS011;16915;51.466;3.610;2023-05-10T21:39:18;18.75;;;3.88;;
30096;SDS011;16915;51.466;3.610;2023-05-10T21:41:44;17.25;;;4.57;;